sensor_id;sensor_type;location;lat;lon;timestamp;P1;durP1;ratioP1;P2;durP2;ratioP2
30874;SDS011;17581;43.222;27.924;2023-12-28T00:01:27;26.90;;;10.10;;
30874;SDS011;17581;43.222;27.924;2023-12-28T00:03:53;10.95;;;7.80;;
30874;SDS011;17581;43.222;27.924;2023-12-28T00:06:18;18.27;;;7.43;;
30874;SDS011;17581;43.222;27.924;2023-12-28T00:08:44;18.10;;;8.40;;
30874;SDS011;17581;43.222;27.924;2023-12-28T00:11:09;14.75;;;7.80;;
30874;SDS011;17581;43.222;27.924;2023-12-28T00:13:35;12.63;;;7.35;;
30874;SDS011;17581;43.222;27.924;2023-12-28T00:16:00;15.40;;;8.30;;
30874;SDS011;17581;43.222;27.924;2023-12-28T00:18:26;14.43;;;8.07;;
30874;SDS011;17581;43.222;27.924;2023-12-28T00:20:52;23.80;;;10.23;;
30874;SDS011;17581;43.222;27.924;2023-12-28T00:23:18;26.52;;;10.10;;
30874;SDS011;17581;43.222;27.924;2023-12-28T00:25:45;32.30;;;11.43;;
30874;SDS011;17581;43.222;27.924;2023-12-28T00:28:10;16.23;;;10.38;;
30874;SDS011;17581;43.222;27.924;2023-12-28T00:30:36;17.25;;;8.68;;
30874;SDS011;17581;43.222;27.924;2023-12-28T00:33:01;23.70;;;10.10;;
30874;SDS011;17581;43.222;27.924;2023-12-28T00:35:27;16.95;;;9.32;;
30874;SDS011;17581;43.222;27.924;2023-12-28T00:37:53;15.38;;;7.95;;
30874;SDS011;17581;43.222;27.924;2023-12-28T00:40:18;15.93;;;8.63;;
30874;SDS011;17581;43.222;27.924;2023-12-28T00:42:44;15.23;;;7.90;;
30874;SDS011;17581;43.222;27.924;2023-12-28T00:45:09;12.45;;;8.25;;
30874;SDS011;17581;43.222;27.924;2023-12-28T00:47:35;14.20;;;7.38;;
30874;SDS011;17581;43.222;27.924;2023-12-28T00:50:00;19.50;;;7.80;;
30874;SDS011;17581;43.222;27.924;2023-12-28T00:52:26;13.15;;;8.45;;
30874;SDS011;17581;43.222;27.924;2023-12-28T00:54:51;16.75;;;9.55;;
30874;SDS011;17581;43.222;27.924;2023-12-28T00:57:17;15.82;;;9.18;;
30874;SDS011;17581;43.222;27.924;2023-12-28T00:59:42;19.50;;;7.60;;
30874;SDS011;17581;43.222;27.924;2023-12-28T01:02:09;19.60;;;8.52;;
30874;SDS011;17581;43.222;27.924;2023-12-28T01:04:34;14.52;;;7.70;;
30874;SDS011;17581;43.222;27.924;2023-12-28T01:07:00;16.15;;;8.10;;
30874;SDS011;17581;43.222;27.924;2023-12-28T01:09:27;11.70;;;8.02;;
30874;SDS011;17581;43.222;27.924;2023-12-28T01:11:53;16.50;;;9.50;;
30874;SDS011;17581;43.222;27.924;2023-12-28T01:14:19;28.65;;;9.10;;
30874;SDS011;17581;43.222;27.924;2023-12-28T01:16:44;29.00;;;10.13;;
30874;SDS011;17581;43.222;27.924;2023-12-28T01:19:10;20.98;;;8.00;;
30874;SDS011;17581;43.222;27.924;2023-12-28T01:21:36;27.52;;;9.77;;
30874;SDS011;17581;43.222;27.924;2023-12-28T01:24:01;11.63;;;7.10;;
30874;SDS011;17581;43.222;27.924;2023-12-28T01:26:27;22.20;;;8.25;;
30874;SDS011;17581;43.222;27.924;2023-12-28T01:28:52;11.20;;;7.43;;
30874;SDS011;17581;43.222;27.924;2023-12-28T01:31:18;14.93;;;9.02;;
30874;SDS011;17581;43.222;27.924;2023-12-28T01:33:43;11.55;;;7.82;;
30874;SDS011;17581;43.222;27.924;2023-12-28T01:36:18;10.73;;;6.95;;
30874;SDS011;17581;43.222;27.924;2023-12-28T01:38:45;22.58;;;7.47;;
30874;SDS011;17581;43.222;27.924;2023-12-28T01:41:10;17.55;;;7.05;;
30874;SDS011;17581;43.222;27.924;2023-12-28T01:43:37;17.92;;;8.52;;
30874;SDS011;17581;43.222;27.924;2023-12-28T01:46:04;22.83;;;9.68;;
30874;SDS011;17581;43.222;27.924;2023-12-28T01:48:30;24.55;;;9.43;;
30874;SDS011;17581;43.222;27.924;2023-12-28T01:50:57;14.85;;;8.15;;
30874;SDS011;17581;43.222;27.924;2023-12-28T01:53:23;25.23;;;8.07;;
30874;SDS011;17581;43.222;27.924;2023-12-28T01:55:49;21.75;;;8.68;;
30874;SDS011;17581;43.222;27.924;2023-12-28T01:58:15;27.63;;;9.15;;
30874;SDS011;17581;43.222;27.924;2023-12-28T02:00:41;17.67;;;8.00;;
30874;SDS011;17581;43.222;27.924;2023-12-28T02:03:07;20.35;;;8.65;;
30874;SDS011;17581;43.222;27.924;2023-12-28T02:05:33;11.90;;;6.03;;
30874;SDS011;17581;43.222;27.924;2023-12-28T02:08:00;11.88;;;6.90;;
30874;SDS011;17581;43.222;27.924;2023-12-28T02:10:25;19.60;;;6.95;;
30874;SDS011;17581;43.222;27.924;2023-12-28T02:12:51;13.38;;;6.68;;
30874;SDS011;17581;43.222;27.924;2023-12-28T02:15:18;13.88;;;7.57;;
30874;SDS011;17581;43.222;27.924;2023-12-28T02:20:20;28.92;;;9.38;;
30874;SDS011;17581;43.222;27.924;2023-12-28T02:22:47;27.85;;;8.95;;
30874;SDS011;17581;43.222;27.924;2023-12-28T02:25:13;15.50;;;7.10;;
30874;SDS011;17581;43.222;27.924;2023-12-28T02:30:06;13.73;;;6.47;;
30874;SDS011;17581;43.222;27.924;2023-12-28T02:32:42;12.90;;;6.80;;
30874;SDS011;17581;43.222;27.924;2023-12-28T02:35:32;28.17;;;7.13;;
30874;SDS011;17581;43.222;27.924;2023-12-28T02:38:01;18.63;;;7.57;;
30874;SDS011;17581;43.222;27.924;2023-12-28T02:40:31;16.33;;;7.18;;
30874;SDS011;17581;43.222;27.924;2023-12-28T02:43:03;33.95;;;17.00;;
30874;SDS011;17581;43.222;27.924;2023-12-28T02:45:29;20.60;;;8.57;;
30874;SDS011;17581;43.222;27.924;2023-12-28T02:47:54;23.88;;;8.88;;
30874;SDS011;17581;43.222;27.924;2023-12-28T02:50:20;13.68;;;8.48;;
30874;SDS011;17581;43.222;27.924;2023-12-28T02:52:45;17.40;;;9.88;;
30874;SDS011;17581;43.222;27.924;2023-12-28T02:55:11;15.15;;;8.00;;
30874;SDS011;17581;43.222;27.924;2023-12-28T02:57:37;21.67;;;10.15;;
30874;SDS011;17581;43.222;27.924;2023-12-28T03:00:06;18.88;;;8.95;;
30874;SDS011;17581;43.222;27.924;2023-12-28T03:02:37;17.83;;;8.82;;
30874;SDS011;17581;43.222;27.924;2023-12-28T03:05:03;13.55;;;8.00;;
30874;SDS011;17581;43.222;27.924;2023-12-28T03:07:30;13.55;;;8.82;;
30874;SDS011;17581;43.222;27.924;2023-12-28T03:09:56;24.23;;;8.88;;
30874;SDS011;17581;43.222;27.924;2023-12-28T03:12:22;17.55;;;8.65;;
30874;SDS011;17581;43.222;27.924;2023-12-28T03:14:47;18.67;;;8.20;;
30874;SDS011;17581;43.222;27.924;2023-12-28T03:17:13;17.75;;;10.05;;
30874;SDS011;17581;43.222;27.924;2023-12-28T03:19:38;26.58;;;15.65;;
30874;SDS011;17581;43.222;27.924;2023-12-28T03:22:04;19.80;;;10.27;;
30874;SDS011;17581;43.222;27.924;2023-12-28T03:24:29;24.48;;;8.55;;
30874;SDS011;17581;43.222;27.924;2023-12-28T03:26:55;13.27;;;8.02;;
30874;SDS011;17581;43.222;27.924;2023-12-28T03:29:21;15.95;;;8.18;;
30874;SDS011;17581;43.222;27.924;2023-12-28T03:31:46;26.23;;;8.25;;
30874;SDS011;17581;43.222;27.924;2023-12-28T03:34:12;18.05;;;9.13;;
30874;SDS011;17581;43.222;27.924;2023-12-28T03:36:37;13.57;;;8.07;;
30874;SDS011;17581;43.222;27.924;2023-12-28T03:39:03;81.15;;;13.25;;
30874;SDS011;17581;43.222;27.924;2023-12-28T03:41:31;38.50;;;15.90;;
30874;SDS011;17581;43.222;27.924;2023-12-28T03:43:57;26.20;;;11.75;;
30874;SDS011;17581;43.222;27.924;2023-12-28T03:46:23;24.73;;;8.65;;
30874;SDS011;17581;43.222;27.924;2023-12-28T03:48:48;27.25;;;8.70;;
30874;SDS011;17581;43.222;27.924;2023-12-28T03:51:14;18.02;;;7.90;;
30874;SDS011;17581;43.222;27.924;2023-12-28T03:53:41;26.83;;;9.45;;
30874;SDS011;17581;43.222;27.924;2023-12-28T03:56:07;25.83;;;10.15;;
30874;SDS011;17581;43.222;27.924;2023-12-28T03:58:32;29.08;;;9.25;;
30874;SDS011;17581;43.222;27.924;2023-12-28T04:00:58;31.20;;;9.88;;
30874;SDS011;17581;43.222;27.924;2023-12-28T04:03:24;16.30;;;8.00;;
30874;SDS011;17581;43.222;27.924;2023-12-28T04:05:50;18.45;;;8.57;;
30874;SDS011;17581;43.222;27.924;2023-12-28T04:08:16;13.32;;;8.23;;
30874;SDS011;17581;43.222;27.924;2023-12-28T04:10:42;16.85;;;8.00;;
30874;SDS011;17581;43.222;27.924;2023-12-28T04:13:07;28.30;;;10.00;;
30874;SDS011;17581;43.222;27.924;2023-12-28T04:15:33;21.23;;;8.68;;
30874;SDS011;17581;43.222;27.924;2023-12-28T04:17:58;24.85;;;8.15;;
30874;SDS011;17581;43.222;27.924;2023-12-28T04:20:24;26.90;;;11.68;;
30874;SDS011;17581;43.222;27.924;2023-12-28T04:22:50;21.73;;;9.13;;
30874;SDS011;17581;43.222;27.924;2023-12-28T04:25:15;20.27;;;9.73;;
30874;SDS011;17581;43.222;27.924;2023-12-28T04:27:44;18.98;;;8.57;;
30874;SDS011;17581;43.222;27.924;2023-12-28T04:30:11;34.88;;;11.90;;
30874;SDS011;17581;43.222;27.924;2023-12-28T04:32:38;16.58;;;10.32;;
30874;SDS011;17581;43.222;27.924;2023-12-28T04:35:04;19.55;;;11.57;;
30874;SDS011;17581;43.222;27.924;2023-12-28T04:37:30;22.52;;;11.32;;
30874;SDS011;17581;43.222;27.924;2023-12-28T04:39:57;18.67;;;10.00;;
30874;SDS011;17581;43.222;27.924;2023-12-28T04:42:23;22.50;;;11.25;;
30874;SDS011;17581;43.222;27.924;2023-12-28T04:44:49;20.48;;;12.15;;
30874;SDS011;17581;43.222;27.924;2023-12-28T04:47:14;25.40;;;12.13;;
30874;SDS011;17581;43.222;27.924;2023-12-28T04:49:40;25.83;;;10.82;;
30874;SDS011;17581;43.222;27.924;2023-12-28T04:52:05;19.58;;;11.82;;
30874;SDS011;17581;43.222;27.924;2023-12-28T04:54:31;37.65;;;12.02;;
30874;SDS011;17581;43.222;27.924;2023-12-28T04:56:58;20.00;;;10.88;;
30874;SDS011;17581;43.222;27.924;2023-12-28T04:59:23;42.92;;;13.52;;
30874;SDS011;17581;43.222;27.924;2023-12-28T05:01:49;28.60;;;11.98;;
30874;SDS011;17581;43.222;27.924;2023-12-28T05:04:15;30.27;;;12.45;;
30874;SDS011;17581;43.222;27.924;2023-12-28T05:06:40;20.52;;;12.55;;
30874;SDS011;17581;43.222;27.924;2023-12-28T05:09:06;25.58;;;12.52;;
30874;SDS011;17581;43.222;27.924;2023-12-28T05:11:31;25.60;;;12.43;;
30874;SDS011;17581;43.222;27.924;2023-12-28T05:13:56;20.27;;;12.45;;
30874;SDS011;17581;43.222;27.924;2023-12-28T05:16:22;25.70;;;13.60;;
30874;SDS011;17581;43.222;27.924;2023-12-28T05:18:47;23.20;;;10.85;;
30874;SDS011;17581;43.222;27.924;2023-12-28T05:21:13;30.90;;;11.23;;
30874;SDS011;17581;43.222;27.924;2023-12-28T05:23:39;24.70;;;11.10;;
30874;SDS011;17581;43.222;27.924;2023-12-28T05:26:05;26.55;;;12.07;;
30874;SDS011;17581;43.222;27.924;2023-12-28T05:28:31;27.73;;;12.48;;
30874;SDS011;17581;43.222;27.924;2023-12-28T05:30:57;40.78;;;14.60;;
30874;SDS011;17581;43.222;27.924;2023-12-28T05:33:26;35.17;;;12.65;;
30874;SDS011;17581;43.222;27.924;2023-12-28T05:35:51;64.60;;;15.57;;
30874;SDS011;17581;43.222;27.924;2023-12-28T05:38:17;35.03;;;11.95;;
30874;SDS011;17581;43.222;27.924;2023-12-28T05:40:43;58.42;;;13.48;;
30874;SDS011;17581;43.222;27.924;2023-12-28T05:43:10;59.50;;;15.02;;
30874;SDS011;17581;43.222;27.924;2023-12-28T05:45:36;57.17;;;13.85;;
30874;SDS011;17581;43.222;27.924;2023-12-28T05:48:01;63.08;;;16.70;;
30874;SDS011;17581;43.222;27.924;2023-12-28T05:50:27;100.82;;;17.25;;
30874;SDS011;17581;43.222;27.924;2023-12-28T05:52:52;76.63;;;16.58;;
30874;SDS011;17581;43.222;27.924;2023-12-28T05:55:18;64.05;;;17.38;;
30874;SDS011;17581;43.222;27.924;2023-12-28T05:57:43;92.53;;;18.98;;
30874;SDS011;17581;43.222;27.924;2023-12-28T06:00:09;115.57;;;22.50;;
30874;SDS011;17581;43.222;27.924;2023-12-28T06:02:35;52.72;;;18.90;;
30874;SDS011;17581;43.222;27.924;2023-12-28T06:05:00;70.28;;;27.92;;
30874;SDS011;17581;43.222;27.924;2023-12-28T06:07:26;42.72;;;19.02;;
30874;SDS011;17581;43.222;27.924;2023-12-28T06:09:52;56.15;;;17.55;;
30874;SDS011;17581;43.222;27.924;2023-12-28T06:12:17;45.75;;;16.77;;
30874;SDS011;17581;43.222;27.924;2023-12-28T06:14:43;58.72;;;17.75;;
30874;SDS011;17581;43.222;27.924;2023-12-28T06:17:08;123.43;;;26.63;;
30874;SDS011;17581;43.222;27.924;2023-12-28T06:19:34;89.38;;;23.98;;
30874;SDS011;17581;43.222;27.924;2023-12-28T06:21:59;69.32;;;21.67;;
30874;SDS011;17581;43.222;27.924;2023-12-28T06:24:25;68.80;;;19.13;;
30874;SDS011;17581;43.222;27.924;2023-12-28T06:26:50;70.63;;;18.55;;
30874;SDS011;17581;43.222;27.924;2023-12-28T06:29:16;59.53;;;18.42;;
30874;SDS011;17581;43.222;27.924;2023-12-28T06:31:41;107.57;;;23.70;;
30874;SDS011;17581;43.222;27.924;2023-12-28T06:34:07;89.32;;;21.90;;
30874;SDS011;17581;43.222;27.924;2023-12-28T06:36:33;84.43;;;19.98;;
30874;SDS011;17581;43.222;27.924;2023-12-28T06:38:59;82.78;;;20.50;;
30874;SDS011;17581;43.222;27.924;2023-12-28T06:41:24;86.57;;;18.83;;
30874;SDS011;17581;43.222;27.924;2023-12-28T06:43:51;47.10;;;18.17;;
30874;SDS011;17581;43.222;27.924;2023-12-28T06:46:17;102.28;;;22.48;;
30874;SDS011;17581;43.222;27.924;2023-12-28T06:48:43;86.63;;;21.70;;
30874;SDS011;17581;43.222;27.924;2023-12-28T06:51:18;78.05;;;20.65;;
30874;SDS011;17581;43.222;27.924;2023-12-28T06:53:44;78.70;;;20.83;;
30874;SDS011;17581;43.222;27.924;2023-12-28T06:56:10;66.40;;;20.67;;
30874;SDS011;17581;43.222;27.924;2023-12-28T06:58:36;90.03;;;24.10;;
30874;SDS011;17581;43.222;27.924;2023-12-28T07:01:04;84.18;;;21.15;;
30874;SDS011;17581;43.222;27.924;2023-12-28T07:03:30;92.18;;;24.38;;
30874;SDS011;17581;43.222;27.924;2023-12-28T07:05:57;71.43;;;18.75;;
30874;SDS011;17581;43.222;27.924;2023-12-28T07:08:24;85.95;;;23.10;;
30874;SDS011;17581;43.222;27.924;2023-12-28T07:10:49;88.80;;;20.13;;
30874;SDS011;17581;43.222;27.924;2023-12-28T07:13:15;94.05;;;21.52;;
30874;SDS011;17581;43.222;27.924;2023-12-28T07:15:40;102.90;;;24.17;;
30874;SDS011;17581;43.222;27.924;2023-12-28T07:18:06;78.72;;;21.13;;
30874;SDS011;17581;43.222;27.924;2023-12-28T07:20:31;59.78;;;20.92;;
30874;SDS011;17581;43.222;27.924;2023-12-28T07:22:57;48.50;;;16.45;;
30874;SDS011;17581;43.222;27.924;2023-12-28T07:25:22;68.40;;;20.23;;
30874;SDS011;17581;43.222;27.924;2023-12-28T07:27:48;50.70;;;19.77;;
30874;SDS011;17581;43.222;27.924;2023-12-28T07:30:13;81.43;;;21.13;;
30874;SDS011;17581;43.222;27.924;2023-12-28T07:32:41;53.22;;;17.95;;
30874;SDS011;17581;43.222;27.924;2023-12-28T07:35:07;66.65;;;21.92;;
30874;SDS011;17581;43.222;27.924;2023-12-28T07:37:33;69.18;;;22.67;;
30874;SDS011;17581;43.222;27.924;2023-12-28T07:40:00;75.78;;;21.35;;
30874;SDS011;17581;43.222;27.924;2023-12-28T07:42:27;84.18;;;23.92;;
30874;SDS011;17581;43.222;27.924;2023-12-28T07:44:52;97.45;;;26.20;;
30874;SDS011;17581;43.222;27.924;2023-12-28T07:47:18;114.30;;;27.25;;
30874;SDS011;17581;43.222;27.924;2023-12-28T07:49:43;88.85;;;26.30;;
30874;SDS011;17581;43.222;27.924;2023-12-28T07:52:09;88.88;;;28.95;;
30874;SDS011;17581;43.222;27.924;2023-12-28T07:54:34;105.20;;;30.80;;
30874;SDS011;17581;43.222;27.924;2023-12-28T07:57:00;94.10;;;29.08;;
30874;SDS011;17581;43.222;27.924;2023-12-28T07:59:25;93.63;;;28.48;;
30874;SDS011;17581;43.222;27.924;2023-12-28T08:01:51;111.13;;;30.88;;
30874;SDS011;17581;43.222;27.924;2023-12-28T08:04:16;82.05;;;27.80;;
30874;SDS011;17581;43.222;27.924;2023-12-28T08:06:42;75.13;;;32.50;;
30874;SDS011;17581;43.222;27.924;2023-12-28T08:09:07;66.38;;;29.63;;
30874;SDS011;17581;43.222;27.924;2023-12-28T08:11:34;167.52;;;36.28;;
30874;SDS011;17581;43.222;27.924;2023-12-28T08:13:59;60.70;;;20.70;;
30874;SDS011;17581;43.222;27.924;2023-12-28T08:16:25;48.95;;;17.75;;
30874;SDS011;17581;43.222;27.924;2023-12-28T08:18:51;69.45;;;18.08;;
30874;SDS011;17581;43.222;27.924;2023-12-28T08:21:17;33.85;;;14.15;;
30874;SDS011;17581;43.222;27.924;2023-12-28T08:23:43;21.00;;;12.27;;
30874;SDS011;17581;43.222;27.924;2023-12-28T08:26:08;21.92;;;13.15;;
30874;SDS011;17581;43.222;27.924;2023-12-28T08:28:35;27.95;;;13.45;;
30874;SDS011;17581;43.222;27.924;2023-12-28T08:31:01;35.78;;;13.85;;
30874;SDS011;17581;43.222;27.924;2023-12-28T08:33:27;27.95;;;12.43;;
30874;SDS011;17581;43.222;27.924;2023-12-28T08:35:52;35.85;;;15.35;;
30874;SDS011;17581;43.222;27.924;2023-12-28T08:38:19;26.88;;;12.32;;
30874;SDS011;17581;43.222;27.924;2023-12-28T08:40:44;32.05;;;13.52;;
30874;SDS011;17581;43.222;27.924;2023-12-28T08:43:10;22.58;;;12.00;;
30874;SDS011;17581;43.222;27.924;2023-12-28T08:45:35;16.42;;;10.80;;
30874;SDS011;17581;43.222;27.924;2023-12-28T08:48:01;34.15;;;12.27;;
30874;SDS011;17581;43.222;27.924;2023-12-28T08:50:27;25.15;;;11.45;;
30874;SDS011;17581;43.222;27.924;2023-12-28T08:52:53;42.63;;;12.63;;
30874;SDS011;17581;43.222;27.924;2023-12-28T08:55:18;20.13;;;11.30;;
30874;SDS011;17581;43.222;27.924;2023-12-28T08:57:44;26.52;;;12.43;;
30874;SDS011;17581;43.222;27.924;2023-12-28T09:00:10;23.35;;;12.85;;
30874;SDS011;17581;43.222;27.924;2023-12-28T09:02:36;39.55;;;12.70;;
30874;SDS011;17581;43.222;27.924;2023-12-28T09:05:02;29.92;;;11.93;;
30874;SDS011;17581;43.222;27.924;2023-12-28T09:07:28;31.45;;;14.30;;
30874;SDS011;17581;43.222;27.924;2023-12-28T09:09:53;45.80;;;14.40;;
30874;SDS011;17581;43.222;27.924;2023-12-28T09:12:19;46.28;;;13.98;;
30874;SDS011;17581;43.222;27.924;2023-12-28T09:14:44;97.53;;;60.95;;
30874;SDS011;17581;43.222;27.924;2023-12-28T09:17:10;39.35;;;17.83;;
30874;SDS011;17581;43.222;27.924;2023-12-28T09:19:36;28.02;;;12.45;;
30874;SDS011;17581;43.222;27.924;2023-12-28T09:22:03;36.63;;;14.43;;
30874;SDS011;17581;43.222;27.924;2023-12-28T09:24:29;35.58;;;12.63;;
30874;SDS011;17581;43.222;27.924;2023-12-28T09:26:54;26.33;;;11.93;;
30874;SDS011;17581;43.222;27.924;2023-12-28T09:29:20;27.10;;;13.82;;
30874;SDS011;17581;43.222;27.924;2023-12-28T09:31:45;24.63;;;13.82;;
30874;SDS011;17581;43.222;27.924;2023-12-28T09:34:11;31.65;;;13.85;;
30874;SDS011;17581;43.222;27.924;2023-12-28T09:36:36;33.17;;;13.55;;
30874;SDS011;17581;43.222;27.924;2023-12-28T09:39:02;32.63;;;13.82;;
30874;SDS011;17581;43.222;27.924;2023-12-28T09:41:29;27.52;;;12.35;;
30874;SDS011;17581;43.222;27.924;2023-12-28T09:46:36;77.85;;;19.45;;
30874;SDS011;17581;43.222;27.924;2023-12-28T09:49:03;20.17;;;11.48;;
30874;SDS011;17581;43.222;27.924;2023-12-28T09:51:29;29.73;;;12.25;;
30874;SDS011;17581;43.222;27.924;2023-12-28T09:53:56;29.98;;;10.98;;
30874;SDS011;17581;43.222;27.924;2023-12-28T09:56:22;77.97;;;19.88;;
30874;SDS011;17581;43.222;27.924;2023-12-28T09:58:48;25.92;;;12.60;;
30874;SDS011;17581;43.222;27.924;2023-12-28T10:01:18;39.05;;;13.90;;
30874;SDS011;17581;43.222;27.924;2023-12-28T10:03:45;42.08;;;14.07;;
30874;SDS011;17581;43.222;27.924;2023-12-28T10:06:10;45.67;;;13.32;;
30874;SDS011;17581;43.222;27.924;2023-12-28T10:08:36;21.63;;;11.88;;
30874;SDS011;17581;43.222;27.924;2023-12-28T10:11:02;32.45;;;11.57;;
30874;SDS011;17581;43.222;27.924;2023-12-28T10:13:28;50.72;;;12.70;;
30874;SDS011;17581;43.222;27.924;2023-12-28T10:15:57;24.92;;;12.10;;
30874;SDS011;17581;43.222;27.924;2023-12-28T10:18:24;41.78;;;13.25;;
30874;SDS011;17581;43.222;27.924;2023-12-28T10:20:53;23.67;;;13.02;;
30874;SDS011;17581;43.222;27.924;2023-12-28T10:23:19;16.95;;;11.63;;
30874;SDS011;17581;43.222;27.924;2023-12-28T10:25:46;23.15;;;11.13;;
30874;SDS011;17581;43.222;27.924;2023-12-28T10:28:11;27.27;;;13.63;;
30874;SDS011;17581;43.222;27.924;2023-12-28T10:30:43;40.83;;;13.70;;
30874;SDS011;17581;43.222;27.924;2023-12-28T10:33:09;33.22;;;11.13;;
30874;SDS011;17581;43.222;27.924;2023-12-28T10:35:35;19.73;;;9.63;;
30874;SDS011;17581;43.222;27.924;2023-12-28T10:38:00;25.77;;;11.20;;
30874;SDS011;17581;43.222;27.924;2023-12-28T10:40:30;28.33;;;10.40;;
30874;SDS011;17581;43.222;27.924;2023-12-28T10:43:02;42.35;;;19.70;;
30874;SDS011;17581;43.222;27.924;2023-12-28T10:45:34;15.55;;;9.98;;
30874;SDS011;17581;43.222;27.924;2023-12-28T10:50:37;32.72;;;12.18;;
30874;SDS011;17581;43.222;27.924;2023-12-28T10:56:14;24.38;;;12.18;;
30874;SDS011;17581;43.222;27.924;2023-12-28T11:01:07;35.17;;;11.77;;
30874;SDS011;17581;43.222;27.924;2023-12-28T11:03:37;35.88;;;13.05;;
30874;SDS011;17581;43.222;27.924;2023-12-28T11:06:07;34.83;;;11.85;;
30874;SDS011;17581;43.222;27.924;2023-12-28T11:08:34;63.33;;;14.25;;
30874;SDS011;17581;43.222;27.924;2023-12-28T11:11:01;39.65;;;12.65;;
30874;SDS011;17581;43.222;27.924;2023-12-28T11:13:29;39.97;;;13.00;;
30874;SDS011;17581;43.222;27.924;2023-12-28T11:15:57;44.75;;;11.80;;
30874;SDS011;17581;43.222;27.924;2023-12-28T11:18:25;62.40;;;14.90;;
30874;SDS011;17581;43.222;27.924;2023-12-28T11:20:53;18.20;;;10.52;;
30874;SDS011;17581;43.222;27.924;2023-12-28T11:23:18;54.97;;;15.35;;
30874;SDS011;17581;43.222;27.924;2023-12-28T11:25:44;20.35;;;11.15;;
30874;SDS011;17581;43.222;27.924;2023-12-28T11:28:11;20.05;;;10.63;;
30874;SDS011;17581;43.222;27.924;2023-12-28T11:30:37;23.08;;;11.68;;
30874;SDS011;17581;43.222;27.924;2023-12-28T11:33:06;22.48;;;10.15;;
30874;SDS011;17581;43.222;27.924;2023-12-28T11:35:35;29.58;;;11.70;;
30874;SDS011;17581;43.222;27.924;2023-12-28T11:38:03;41.22;;;12.05;;
30874;SDS011;17581;43.222;27.924;2023-12-28T11:40:39;45.22;;;14.32;;
30874;SDS011;17581;43.222;27.924;2023-12-28T11:43:14;30.38;;;11.35;;
30874;SDS011;17581;43.222;27.924;2023-12-28T11:45:50;34.88;;;10.05;;
30874;SDS011;17581;43.222;27.924;2023-12-28T11:48:25;28.00;;;11.10;;
30874;SDS011;17581;43.222;27.924;2023-12-28T11:50:53;28.48;;;11.55;;
30874;SDS011;17581;43.222;27.924;2023-12-28T11:53:20;34.40;;;11.43;;
30874;SDS011;17581;43.222;27.924;2023-12-28T11:55:46;39.50;;;11.57;;
30874;SDS011;17581;43.222;27.924;2023-12-28T11:58:11;17.30;;;8.73;;
30874;SDS011;17581;43.222;27.924;2023-12-28T12:00:37;44.25;;;10.75;;
30874;SDS011;17581;43.222;27.924;2023-12-28T12:03:02;24.75;;;10.32;;
30874;SDS011;17581;43.222;27.924;2023-12-28T12:05:28;42.00;;;13.15;;
30874;SDS011;17581;43.222;27.924;2023-12-28T12:07:54;18.10;;;9.32;;
30874;SDS011;17581;43.222;27.924;2023-12-28T12:10:20;17.80;;;8.45;;
30874;SDS011;17581;43.222;27.924;2023-12-28T12:12:46;27.42;;;10.43;;
30874;SDS011;17581;43.222;27.924;2023-12-28T12:15:12;34.72;;;10.85;;
30874;SDS011;17581;43.222;27.924;2023-12-28T12:17:38;21.27;;;9.30;;
30874;SDS011;17581;43.222;27.924;2023-12-28T12:20:04;17.65;;;8.52;;
30874;SDS011;17581;43.222;27.924;2023-12-28T12:22:31;14.25;;;7.70;;
30874;SDS011;17581;43.222;27.924;2023-12-28T12:24:57;32.00;;;9.90;;
30874;SDS011;17581;43.222;27.924;2023-12-28T12:27:28;18.00;;;8.33;;
30874;SDS011;17581;43.222;27.924;2023-12-28T12:29:54;41.17;;;10.73;;
30874;SDS011;17581;43.222;27.924;2023-12-28T12:32:20;29.50;;;9.25;;
30874;SDS011;17581;43.222;27.924;2023-12-28T12:34:46;33.65;;;9.25;;
30874;SDS011;17581;43.222;27.924;2023-12-28T12:37:12;29.20;;;8.10;;
30874;SDS011;17581;43.222;27.924;2023-12-28T12:39:38;30.40;;;9.55;;
30874;SDS011;17581;43.222;27.924;2023-12-28T12:42:04;75.25;;;14.70;;
30874;SDS011;17581;43.222;27.924;2023-12-28T12:44:29;19.48;;;8.80;;
30874;SDS011;17581;43.222;27.924;2023-12-28T12:46:59;27.67;;;9.77;;
30874;SDS011;17581;43.222;27.924;2023-12-28T12:49:24;25.00;;;8.85;;
30874;SDS011;17581;43.222;27.924;2023-12-28T12:51:51;33.15;;;10.95;;
30874;SDS011;17581;43.222;27.924;2023-12-28T12:54:17;32.40;;;11.75;;
30874;SDS011;17581;43.222;27.924;2023-12-28T12:56:45;34.95;;;10.32;;
30874;SDS011;17581;43.222;27.924;2023-12-28T12:59:11;16.30;;;8.95;;
30874;SDS011;17581;43.222;27.924;2023-12-28T13:01:46;32.22;;;9.88;;
30874;SDS011;17581;43.222;27.924;2023-12-28T13:04:16;11.60;;;9.02;;
30874;SDS011;17581;43.222;27.924;2023-12-28T13:06:42;37.70;;;12.23;;
30874;SDS011;17581;43.222;27.924;2023-12-28T13:09:08;75.28;;;14.93;;
30874;SDS011;17581;43.222;27.924;2023-12-28T13:11:35;19.83;;;9.90;;
30874;SDS011;17581;43.222;27.924;2023-12-28T13:14:01;24.02;;;10.35;;
30874;SDS011;17581;43.222;27.924;2023-12-28T13:16:27;19.45;;;8.75;;
30874;SDS011;17581;43.222;27.924;2023-12-28T13:18:52;22.52;;;7.30;;
30874;SDS011;17581;43.222;27.924;2023-12-28T13:21:18;29.95;;;9.95;;
30874;SDS011;17581;43.222;27.924;2023-12-28T13:23:44;36.80;;;8.85;;
30874;SDS011;17581;43.222;27.924;2023-12-28T13:26:09;36.53;;;12.45;;
30874;SDS011;17581;43.222;27.924;2023-12-28T13:28:35;32.40;;;10.18;;
30874;SDS011;17581;43.222;27.924;2023-12-28T13:31:00;31.35;;;9.40;;
30874;SDS011;17581;43.222;27.924;2023-12-28T13:33:26;32.55;;;10.18;;
30874;SDS011;17581;43.222;27.924;2023-12-28T13:35:51;33.92;;;8.90;;
30874;SDS011;17581;43.222;27.924;2023-12-28T13:38:17;19.02;;;7.60;;
30874;SDS011;17581;43.222;27.924;2023-12-28T13:40:43;47.83;;;10.60;;
30874;SDS011;17581;43.222;27.924;2023-12-28T13:43:08;42.17;;;8.98;;
30874;SDS011;17581;43.222;27.924;2023-12-28T13:45:35;30.20;;;9.05;;
30874;SDS011;17581;43.222;27.924;2023-12-28T13:48:00;46.03;;;19.60;;
30874;SDS011;17581;43.222;27.924;2023-12-28T13:50:26;32.40;;;9.85;;
30874;SDS011;17581;43.222;27.924;2023-12-28T13:52:51;43.53;;;8.63;;
30874;SDS011;17581;43.222;27.924;2023-12-28T13:55:17;64.05;;;10.90;;
30874;SDS011;17581;43.222;27.924;2023-12-28T13:57:42;36.22;;;10.07;;
30874;SDS011;17581;43.222;27.924;2023-12-28T14:00:08;31.83;;;10.32;;
30874;SDS011;17581;43.222;27.924;2023-12-28T14:02:34;20.05;;;9.77;;
30874;SDS011;17581;43.222;27.924;2023-12-28T14:04:59;30.77;;;9.77;;
30874;SDS011;17581;43.222;27.924;2023-12-28T14:07:25;37.22;;;11.48;;
30874;SDS011;17581;43.222;27.924;2023-12-28T14:09:51;33.47;;;10.45;;
30874;SDS011;17581;43.222;27.924;2023-12-28T14:12:16;91.55;;;12.18;;
30874;SDS011;17581;43.222;27.924;2023-12-28T14:14:42;33.97;;;10.20;;
30874;SDS011;17581;43.222;27.924;2023-12-28T14:17:07;34.60;;;11.02;;
30874;SDS011;17581;43.222;27.924;2023-12-28T14:19:33;30.38;;;9.18;;
30874;SDS011;17581;43.222;27.924;2023-12-28T14:21:59;36.90;;;9.98;;
30874;SDS011;17581;43.222;27.924;2023-12-28T14:24:25;40.85;;;10.98;;